Time;durP1;ratioP1;P1;durP2;ratioP2;P2;SDS_P1;SDS_P2;PMS_P1;PMS_P2;Temp;Humidity;BMP_temperature;BMP_pressure;BME280_temperature;BME280_humidity;BME280_pressure;Samples;Min_cycle;Max_cycle;Signal;HPM_P1;HPM_P2
2024/04/23 00:00:58;;;;;;;19.23;12.52;;;4.20;99.90;;;;;;7597743;19;20014;-81
2024/04/23 00:03:29;;;;;;;16.75;10.77;;;4.10;99.90;;;;;;7580923;19;20488;-77
2024/04/23 00:06:01;;;;;;;18.30;12.25;;;4.10;99.90;;;;;;7595452;19;20817;-79
2024/04/23 00:08:32;;;;;;;18.63;11.98;;;4.10;99.90;;;;;;7589935;19;20596;-78
2024/04/23 00:11:03;;;;;;;20.73;13.07;;;4.10;99.90;;;;;;7589817;19;20018;-79
2024/04/23 00:13:34;;;;;;;17.20;11.50;;;4.10;99.90;;;;;;7595649;19;20038;-78
2024/04/23 00:16:06;;;;;;;15.88;11.05;;;4.10;99.90;;;;;;7582102;19;20027;-81
2024/04/23 00:18:37;;;;;;;18.58;11.38;;;4.00;99.90;;;;;;7588812;19;20022;-80
2024/04/23 00:21:08;;;;;;;17.40;10.93;;;4.00;99.90;;;;;;7583310;19;20018;-78
2024/04/23 00:23:39;;;;;;;18.33;11.13;;;3.90;99.90;;;;;;7593952;19;20571;-79
2024/04/23 00:26:10;;;;;;;21.83;11.50;;;3.90;99.90;;;;;;7600697;19;20031;-80
2024/04/23 00:28:41;;;;;;;16.50;10.63;;;3.90;99.90;;;;;;7600475;19;20015;-81
2024/04/23 00:31:12;;;;;;;18.17;10.85;;;3.80;99.90;;;;;;7588720;19;20014;-79
2024/04/23 00:33:44;;;;;;;14.75;10.27;;;3.80;99.90;;;;;;7587554;19;20056;-79
2024/04/23 00:36:15;;;;;;;17.42;10.68;;;3.80;99.90;;;;;;7592311;19;20022;-78
2024/04/23 00:38:46;;;;;;;19.67;11.15;;;3.80;99.90;;;;;;7598194;19;20136;-79
2024/04/23 00:41:17;;;;;;;16.05;10.73;;;3.80;99.90;;;;;;7595870;19;21228;-78
2024/04/23 00:43:48;;;;;;;17.25;11.48;;;3.80;99.90;;;;;;7591595;19;20022;-78
2024/04/23 00:46:21;;;;;;;19.38;10.43;;;3.80;99.90;;;;;;7600832;19;20118;-79
2024/04/23 00:48:52;;;;;;;16.63;10.85;;;3.80;99.90;;;;;;7584027;19;20010;-79
2024/04/23 00:51:24;;;;;;;18.10;11.48;;;3.80;99.90;;;;;;7606944;19;20022;-77
2024/04/23 00:53:55;;;;;;;13.85;9.75;;;3.80;99.90;;;;;;7599748;19;20059;-78
2024/04/23 00:56:27;;;;;;;16.67;11.20;;;3.80;99.90;;;;;;7604963;19;20014;-80
2024/04/23 00:58:59;;;;;;;15.80;10.20;;;3.80;99.90;;;;;;7600510;19;20026;-80
2024/04/23 01:01:35;;;;;;;24.35;12.10;;;3.80;99.90;;;;;;7621945;19;20013;-78
2024/04/23 01:04:06;;;;;;;16.85;10.40;;;3.80;99.90;;;;;;7628809;19;20010;-79
2024/04/23 01:06:38;;;;;;;20.27;11.40;;;3.70;99.90;;;;;;7626741;19;20035;-78
2024/04/23 01:09:09;;;;;;;17.73;10.77;;;3.70;99.90;;;;;;7628180;19;20066;-79
2024/04/23 01:11:40;;;;;;;18.63;10.98;;;3.70;99.90;;;;;;7623317;19;20047;-77
2024/04/23 01:14:12;;;;;;;15.73;10.68;;;3.70;99.90;;;;;;7627327;19;20632;-77
2024/04/23 01:16:45;;;;;;;17.63;11.05;;;3.70;99.90;;;;;;7627001;19;20645;-78
2024/04/23 01:19:21;;;;;;;;;;;3.60;99.90;;;;;;7632578;19;20479;-79
2024/04/23 01:22:06;;;;;;;17.55;10.93;;;3.50;99.90;;;;;;7635170;19;19943;-77
2024/04/23 01:24:48;;;;;;;19.05;12.02;;;3.40;99.90;;;;;;7632140;19;20018;-80
2024/04/23 01:27:20;;;;;;;18.63;11.70;;;3.40;99.90;;;;;;7628700;19;20018;-79
2024/04/23 01:29:52;;;;;;;20.15;12.00;;;3.30;99.90;;;;;;7617900;19;20074;-79
2024/04/23 01:32:23;;;;;;;19.60;12.10;;;3.40;99.90;;;;;;7619170;19;20037;-77
2024/04/23 01:34:55;;;;;;;21.40;11.95;;;3.30;99.90;;;;;;7621464;19;20308;-78
2024/04/23 01:37:30;;;;;;;22.50;12.95;;;3.30;99.90;;;;;;7621939;19;20031;-79
2024/04/23 01:40:03;;;;;;;20.45;12.52;;;3.30;99.90;;;;;;7618009;19;20010;-77
2024/04/23 01:42:35;;;;;;;20.43;11.63;;;3.20;99.90;;;;;;7622291;19;20020;-78
2024/04/23 01:45:09;;;;;;;17.85;11.73;;;3.20;99.90;;;;;;7620171;19;20014;-79
2024/04/23 01:47:41;;;;;;;19.17;11.98;;;3.20;99.90;;;;;;7622765;19;20098;-78
2024/04/23 01:50:13;;;;;;;23.38;13.73;;;3.10;99.90;;;;;;7620792;19;20070;-79
2024/04/23 01:52:44;;;;;;;19.05;12.55;;;3.20;99.90;;;;;;7615286;19;20044;-78
2024/04/23 01:55:18;;;;;;;25.95;13.13;;;3.20;99.90;;;;;;7616699;19;20049;-78
2024/04/23 01:57:49;;;;;;;24.63;13.82;;;3.20;99.90;;;;;;7617297;19;20081;-81
2024/04/23 02:00:23;;;;;;;20.65;12.98;;;3.20;99.90;;;;;;7609329;19;20086;-81
2024/04/23 02:02:56;;;;;;;22.15;13.88;;;3.30;99.90;;;;;;7605970;19;20010;-80
2024/04/23 02:05:28;;;;;;;24.02;13.90;;;3.30;99.90;;;;;;7607442;19;20445;-81
2024/04/23 02:08:00;;;;;;;21.33;13.20;;;3.20;99.90;;;;;;7606552;19;20011;-81
2024/04/23 02:10:31;;;;;;;23.52;13.43;;;3.30;99.90;;;;;;7611589;19;20026;-81
2024/04/23 02:13:04;;;;;;;21.83;13.35;;;3.30;99.90;;;;;;7605253;19;20148;-79
2024/04/23 02:15:35;;;;;;;22.52;13.52;;;3.20;99.90;;;;;;7610856;19;20010;-80
2024/04/23 02:18:07;;;;;;;25.35;13.65;;;3.20;99.90;;;;;;7608538;19;20011;-82
2024/04/23 02:20:38;;;;;;;21.00;12.70;;;3.20;99.90;;;;;;7608436;19;20949;-79
2024/04/23 02:23:09;;;;;;;21.63;13.65;;;3.20;99.90;;;;;;7601419;19;20017;-81
2024/04/23 02:25:40;;;;;;;25.17;13.40;;;3.10;99.90;;;;;;7601247;19;20413;-79
2024/04/23 02:28:11;;;;;;;23.38;13.75;;;3.20;99.90;;;;;;7604200;19;20611;-80
2024/04/23 02:30:43;;;;;;;19.23;12.30;;;3.10;99.90;;;;;;7599356;19;20010;-86
2024/04/23 02:33:14;;;;;;;24.20;13.73;;;3.10;99.90;;;;;;7597792;19;20078;-84
2024/04/23 02:35:45;;;;;;;23.10;13.88;;;3.10;99.90;;;;;;7579482;19;20018;-81
2024/04/23 02:38:16;;;;;;;22.98;13.60;;;3.10;99.90;;;;;;7606117;19;20018;-78
2024/04/23 02:40:47;;;;;;;22.85;13.70;;;3.10;99.90;;;;;;7603770;19;20018;-80
2024/04/23 02:43:18;;;;;;;24.02;13.48;;;3.10;99.90;;;;;;7588807;19;20101;-80
2024/04/23 02:45:49;;;;;;;22.83;13.95;;;3.10;99.90;;;;;;7600245;19;20037;-82
2024/04/23 02:48:21;;;;;;;22.42;13.68;;;3.10;99.90;;;;;;7589038;19;20011;-81
2024/04/23 02:50:52;;;;;;;23.65;13.32;;;3.10;99.90;;;;;;7598134;19;21035;-82
2024/04/23 02:53:23;;;;;;;20.10;13.10;;;3.10;99.90;;;;;;7575890;19;20031;-78
2024/04/23 02:55:54;;;;;;;20.58;12.57;;;3.00;99.90;;;;;;7596691;19;20051;-81
2024/04/23 02:58:25;;;;;;;22.77;14.00;;;3.00;99.90;;;;;;7575334;19;20026;-83
2024/04/23 03:00:57;;;;;;;21.98;13.70;;;3.00;99.90;;;;;;7572681;19;20036;-80
2024/04/23 03:03:28;;;;;;;24.33;14.48;;;3.00;99.90;;;;;;7579816;19;20026;-82
2024/04/23 03:05:59;;;;;;;25.10;14.48;;;3.00;99.90;;;;;;7578086;19;20019;-82
2024/04/23 03:08:30;;;;;;;26.08;13.73;;;3.00;99.90;;;;;;7570039;19;20022;-83
2024/04/23 03:11:01;;;;;;;28.05;14.65;;;3.00;99.90;;;;;;7577533;19;20026;-83
2024/04/23 03:13:32;;;;;;;24.35;14.63;;;3.00;99.90;;;;;;7584356;19;20632;-81
2024/04/23 03:16:04;;;;;;;22.48;12.52;;;3.00;99.90;;;;;;7584602;19;20007;-80
2024/04/23 03:18:35;;;;;;;27.92;14.48;;;3.00;99.90;;;;;;7571443;19;20014;-80
2024/04/23 03:21:07;;;;;;;23.67;14.57;;;3.00;99.90;;;;;;7586124;19;20217;-80
2024/04/23 03:23:38;;;;;;;28.42;15.40;;;2.90;99.90;;;;;;7572388;19;20014;-79
2024/04/23 03:26:09;;;;;;;28.77;15.52;;;2.90;99.90;;;;;;7571973;19;21020;-79
2024/04/23 03:28:40;;;;;;;27.42;14.55;;;2.90;99.90;;;;;;7560522;19;20934;-81
2024/04/23 03:31:11;;;;;;;27.83;15.15;;;2.90;99.90;;;;;;7568424;19;20022;-81
2024/04/23 03:33:43;;;;;;;23.65;13.77;;;3.00;99.90;;;;;;7570609;19;20014;-80
2024/04/23 03:36:14;;;;;;;27.65;14.00;;;2.90;99.90;;;;;;7578804;19;20186;-79
2024/04/23 03:38:45;;;;;;;33.50;16.17;;;2.90;99.90;;;;;;7573223;19;20032;-83
2024/04/23 03:41:17;;;;;;;25.27;15.23;;;2.90;99.90;;;;;;7574753;19;20113;-81
2024/04/23 03:43:48;;;;;;;25.13;14.02;;;2.90;99.90;;;;;;7581446;19;20042;-80
2024/04/23 03:46:20;;;;;;;24.15;14.63;;;2.90;99.90;;;;;;7576634;19;20055;-79
2024/04/23 03:48:51;;;;;;;26.27;15.02;;;2.90;99.90;;;;;;7557770;19;20018;-80
2024/04/23 03:51:23;;;;;;;27.40;15.85;;;2.80;99.90;;;;;;7579463;19;20018;-81
2024/04/23 03:53:54;;;;;;;26.98;15.65;;;2.80;99.90;;;;;;7563516;19;20021;-82
2024/04/23 03:56:25;;;;;;;26.33;15.48;;;2.80;99.90;;;;;;7571149;19;20022;-81
2024/04/23 03:58:56;;;;;;;28.27;15.20;;;2.80;99.90;;;;;;7555715;19;20010;-81
2024/04/23 04:01:27;;;;;;;28.08;15.88;;;2.80;99.90;;;;;;7559917;19;20019;-79
2024/04/23 04:06:49;;;;;;;32.08;16.38;;;2.90;99.90;;;;;;7576398;19;20038;-81
2024/04/23 04:09:20;;;;;;;30.27;16.65;;;2.90;99.90;;;;;;7566597;19;20026;-78
2024/04/23 04:11:56;;;;;;;28.55;16.20;;;2.90;99.90;;;;;;7572119;19;20023;-83
2024/04/23 04:14:27;;;;;;;29.65;16.63;;;2.90;99.90;;;;;;7567124;19;20014;-81
2024/04/23 04:16:58;;;;;;;27.23;15.23;;;2.90;99.90;;;;;;7573830;19;20026;-79
2024/04/23 04:19:30;;;;;;;28.85;16.00;;;2.80;99.90;;;;;;7542943;19;20849;-85
2024/04/23 04:22:01;;;;;;;30.05;16.38;;;2.90;99.90;;;;;;7554890;19;20030;-83
2024/04/23 04:24:32;;;;;;;29.35;17.13;;;2.90;99.90;;;;;;7529355;19;20014;-80
2024/04/23 04:27:04;;;;;;;27.30;16.23;;;2.90;99.90;;;;;;7542616;19;20118;-80
2024/04/23 04:29:35;;;;;;;29.13;16.30;;;2.90;99.90;;;;;;7524880;19;20015;-79
2024/04/23 04:32:08;;;;;;;29.02;16.45;;;2.90;99.90;;;;;;7541922;19;20014;-81
2024/04/23 04:34:39;;;;;;;28.85;16.67;;;2.90;99.90;;;;;;7544191;19;20014;-82
2024/04/23 04:37:10;;;;;;;32.20;17.23;;;2.90;99.90;;;;;;7536007;19;20022;-83
2024/04/23 04:39:42;;;;;;;33.10;17.67;;;2.90;99.90;;;;;;7545801;19;21234;-80
2024/04/23 04:42:13;;;;;;;30.73;17.05;;;2.90;99.90;;;;;;7541692;19;21689;-81
2024/04/23 04:44:44;;;;;;;30.85;16.90;;;2.90;99.90;;;;;;7548866;19;20085;-77
2024/04/23 04:47:15;;;;;;;28.73;16.10;;;2.90;99.90;;;;;;7547806;19;20050;-80
2024/04/23 04:49:47;;;;;;;33.15;17.73;;;2.90;99.90;;;;;;7538414;19;22742;-81
2024/04/23 04:52:18;;;;;;;34.63;17.58;;;2.90;99.90;;;;;;7566314;19;20022;-80
2024/04/23 04:54:49;;;;;;;29.92;17.33;;;2.90;99.90;;;;;;7534568;19;21088;-80
2024/04/23 04:57:20;;;;;;;31.63;16.77;;;2.90;99.90;;;;;;7567201;19;20022;-78
2024/04/23 04:59:52;;;;;;;36.15;18.48;;;2.90;99.90;;;;;;7539033;19;20071;-80
2024/04/23 05:02:23;;;;;;;29.98;16.73;;;2.90;99.90;;;;;;7540187;19;20266;-77
2024/04/23 05:04:55;;;;;;;33.63;18.90;;;2.90;99.90;;;;;;7564592;19;20019;-80
2024/04/23 05:07:27;;;;;;;31.07;17.87;;;3.00;99.90;;;;;;7533775;19;20114;-86
2024/04/23 05:09:59;;;;;;;31.20;17.73;;;3.00;99.90;;;;;;7548842;19;20018;-81
2024/04/23 05:12:31;;;;;;;29.83;17.63;;;2.90;99.90;;;;;;7565759;19;20034;-78
2024/04/23 05:15:04;;;;;;;32.30;18.17;;;2.90;99.90;;;;;;7548246;19;20796;-78
2024/04/23 05:17:35;;;;;;;30.57;17.97;;;2.90;99.90;;;;;;7546254;19;20018;-80
2024/04/23 05:20:09;;;;;;;31.58;18.00;;;2.90;99.90;;;;;;7555702;19;20279;-83
2024/04/23 05:22:40;;;;;;;31.67;17.15;;;2.90;99.90;;;;;;7565195;19;20026;-81
2024/04/23 05:25:11;;;;;;;30.13;17.60;;;2.90;99.90;;;;;;7566929;19;20604;-80
2024/04/23 05:27:42;;;;;;;33.70;18.88;;;2.90;99.90;;;;;;7554979;19;20730;-82
2024/04/23 05:32:46;;;;;;;31.27;18.08;;;2.90;99.90;;;;;;7571227;19;20029;-83
2024/04/23 05:33:06;;;;;;;33.50;18.85;;;2.90;99.90;;;;;;7555977;19;20022;-81
2024/04/23 05:35:37;;;;;;;33.17;19.10;;;2.80;99.90;;;;;;7561913;19;20442;-81
2024/04/23 05:38:08;;;;;;;34.95;19.40;;;2.80;99.90;;;;;;7584003;19;20022;-81
2024/04/23 05:40:40;;;;;;;31.58;18.63;;;2.80;99.90;;;;;;7591770;19;20014;-77
2024/04/23 05:43:11;;;;;;;33.30;18.02;;;2.80;99.90;;;;;;7581566;19;20648;-79
2024/04/23 05:45:42;;;;;;;36.78;20.27;;;2.90;99.90;;;;;;7582859;19;20449;-78
2024/04/23 05:48:51;;;;;;;33.17;19.55;;;2.90;99.90;;;;;;7572583;19;20019;-76
2024/04/23 05:52:18;;;;;;;36.42;18.85;;;2.90;99.90;;;;;;7568118;19;20037;-78
2024/04/23 05:55:35;;;;;;;31.85;18.65;;;2.90;99.90;;;;;;7583111;19;20227;-81
2024/04/23 05:58:08;;;;;;;34.58;19.05;;;2.80;99.90;;;;;;7584564;19;20022;-81
2024/04/23 06:00:39;;;;;;;33.55;19.63;;;2.80;99.90;;;;;;7570392;19;20018;-78
2024/04/23 06:03:10;;;;;;;33.25;20.27;;;2.80;99.90;;;;;;7551965;19;20663;-79
2024/04/23 06:05:41;;;;;;;32.10;18.77;;;2.90;99.90;;;;;;7564762;19;20563;-80
2024/04/23 06:08:13;;;;;;;32.58;17.98;;;2.90;99.90;;;;;;7571670;19;20051;-78
2024/04/23 06:10:44;;;;;;;30.02;18.38;;;2.90;99.90;;;;;;7582873;19;20420;-78
2024/04/23 06:13:17;;;;;;;37.13;19.30;;;2.90;99.90;;;;;;7576654;19;20018;-80
2024/04/23 06:15:49;;;;;;;40.35;21.15;;;2.90;99.90;;;;;;7585841;19;20057;-79
2024/04/23 06:18:22;;;;;;;37.53;20.95;;;2.90;99.90;;;;;;7571904;19;20075;-79
2024/04/23 06:20:54;;;;;;;32.95;19.17;;;2.90;99.90;;;;;;7587747;19;20079;-78
2024/04/23 06:23:27;;;;;;;38.13;19.85;;;2.90;99.90;;;;;;7584226;19;20037;-81
2024/04/23 06:25:58;;;;;;;39.20;20.50;;;3.00;99.90;;;;;;7582596;19;20039;-77
2024/04/23 06:28:33;;;;;;;33.97;20.23;;;3.00;99.90;;;;;;7581457;19;20287;-78
2024/04/23 06:31:10;;;;;;;36.33;20.02;;;3.00;99.90;;;;;;7587279;19;20014;-76
2024/04/23 06:33:41;;;;;;;33.90;19.98;;;3.10;99.90;;;;;;7582612;19;20028;-78
2024/04/23 06:36:12;;;;;;;33.15;19.90;;;3.00;99.90;;;;;;7593555;19;20022;-80
2024/04/23 06:38:43;;;;;;;33.08;20.05;;;3.10;99.90;;;;;;7588369;19;20035;-77
2024/04/23 06:41:14;;;;;;;31.20;18.52;;;3.10;99.90;;;;;;7582376;19;20015;-80
2024/04/23 06:43:51;;;;;;;33.17;18.85;;;3.10;99.90;;;;;;7583598;19;20553;-77
2024/04/23 06:46:23;;;;;;;29.75;17.63;;;3.10;99.90;;;;;;7584297;19;20047;-76
2024/04/23 06:48:56;;;;;;;35.05;20.00;;;3.10;99.90;;;;;;7585859;19;20113;-77
2024/04/23 06:51:27;;;;;;;28.83;17.10;;;3.10;99.90;;;;;;7578406;19;20018;-78
2024/04/23 06:53:58;;;;;;;35.75;19.42;;;3.10;99.90;;;;;;7584930;19;20018;-79
2024/04/23 06:56:29;;;;;;;38.33;19.85;;;3.10;99.90;;;;;;7566954;19;20926;-75
2024/04/23 06:59:01;;;;;;;30.95;18.20;;;3.10;99.90;;;;;;7586331;19;20374;-79
2024/04/23 07:01:32;;;;;;;30.67;19.48;;;3.20;99.90;;;;;;7586250;19;20015;-76
2024/04/23 07:04:05;;;;;;;38.28;20.15;;;3.10;99.90;;;;;;7571363;19;20034;-76
2024/04/23 07:06:36;;;;;;;35.03;20.08;;;3.20;99.90;;;;;;7568072;19;20480;-76
2024/04/23 07:09:09;;;;;;;37.05;18.35;;;3.20;99.90;;;;;;7583800;19;20027;-81
2024/04/23 07:11:40;;;;;;;33.83;19.48;;;3.20;99.90;;;;;;7595502;19;20014;-80
2024/04/23 07:14:11;;;;;;;31.52;19.02;;;3.20;99.90;;;;;;7589885;19;20239;-76
2024/04/23 07:16:45;;;;;;;32.47;18.10;;;3.20;99.90;;;;;;7568951;19;20018;-76
2024/04/23 07:19:16;;;;;;;31.70;18.00;;;3.30;99.90;;;;;;7583631;19;20025;-76
2024/04/23 07:21:47;;;;;;;31.45;19.10;;;3.40;99.90;;;;;;7558400;19;20025;-81
2024/04/23 07:24:18;;;;;;;28.88;18.08;;;3.40;99.90;;;;;;7572569;19;20025;-79
2024/04/23 07:26:51;;;;;;;31.10;17.98;;;3.40;99.90;;;;;;7561922;19;20021;-78
2024/04/23 07:29:23;;;;;;;31.15;18.70;;;3.40;99.90;;;;;;7551657;19;20019;-78
2024/04/23 07:31:54;;;;;;;27.45;17.88;;;3.40;99.90;;;;;;7568937;19;20015;-75
2024/04/23 07:34:25;;;;;;;26.50;16.70;;;3.50;99.90;;;;;;7574036;19;20033;-76
2024/04/23 07:36:56;;;;;;;30.58;18.63;;;3.50;99.90;;;;;;7582343;19;20039;-74
2024/04/23 07:39:28;;;;;;;34.78;18.75;;;3.60;99.90;;;;;;7577557;19;20015;-81
2024/04/23 07:41:59;;;;;;;31.83;19.20;;;3.60;99.90;;;;;;7576075;19;20006;-78
2024/04/23 07:44:30;;;;;;;29.15;18.67;;;3.60;99.90;;;;;;7574284;19;20060;-79
2024/04/23 07:47:01;;;;;;;33.88;19.63;;;3.70;99.90;;;;;;7565208;19;20428;-76
2024/04/23 07:49:33;;;;;;;34.55;19.02;;;3.80;99.90;;;;;;7583817;19;20513;-80
2024/04/23 07:52:04;;;;;;;28.05;17.55;;;3.80;99.90;;;;;;7557347;19;20086;-80
2024/04/23 07:54:35;;;;;;;28.85;17.70;;;3.90;99.90;;;;;;7580844;19;20947;-80
2024/04/23 07:57:06;;;;;;;30.35;18.52;;;3.90;99.90;;;;;;7546777;19;20429;-76
2024/04/23 07:59:37;;;;;;;28.48;17.75;;;3.90;99.90;;;;;;7584153;19;20711;-77
2024/04/23 08:02:08;;;;;;;34.22;20.02;;;3.90;99.90;;;;;;7555743;19;20122;-77
2024/04/23 08:04:39;;;;;;;28.27;17.83;;;3.90;99.90;;;;;;7574186;19;20033;-79
2024/04/23 08:07:11;;;;;;;26.48;17.35;;;3.80;99.90;;;;;;7579418;19;20200;-78
2024/04/23 08:09:43;;;;;;;26.65;17.27;;;3.80;99.90;;;;;;7581217;19;20025;-80
2024/04/23 08:12:15;;;;;;;28.83;18.05;;;3.80;99.90;;;;;;7577558;19;20038;-76
2024/04/23 08:14:46;;;;;;;28.63;17.27;;;3.90;99.90;;;;;;7568306;19;20513;-81
2024/04/23 08:17:18;;;;;;;29.35;18.52;;;3.90;99.90;;;;;;7578305;19;20049;-80
2024/04/23 08:19:49;;;;;;;31.33;18.88;;;3.80;99.90;;;;;;7579196;19;20014;-75
2024/04/23 08:22:21;;;;;;;30.25;18.98;;;3.90;99.90;;;;;;7566378;19;20022;-80
2024/04/23 08:24:52;;;;;;;34.25;19.35;;;3.90;99.90;;;;;;7578812;19;21596;-77
2024/04/23 08:27:23;;;;;;;32.10;19.38;;;4.00;99.90;;;;;;7579099;19;20391;-76
2024/04/23 08:29:54;;;;;;;29.67;18.70;;;4.10;99.90;;;;;;7572602;19;20023;-78
2024/04/23 08:32:25;;;;;;;33.05;19.15;;;4.20;99.90;;;;;;7567498;19;20376;-79
2024/04/23 08:34:57;;;;;;;30.55;18.10;;;4.30;99.90;;;;;;7561354;19;20327;-81
2024/04/23 08:37:28;;;;;;;24.10;16.10;;;4.30;99.90;;;;;;7557441;19;20538;-79
2024/04/23 08:39:59;;;;;;;27.10;16.75;;;4.40;99.90;;;;;;7571260;19;20028;-79
2024/04/23 08:42:34;;;;;;;27.75;17.85;;;4.30;99.90;;;;;;7559994;19;20031;-78
2024/04/23 08:45:08;;;;;;;26.83;18.40;;;4.30;99.90;;;;;;7555651;19;20014;-77
2024/04/23 08:47:39;;;;;;;26.92;17.65;;;4.30;99.90;;;;;;7572629;19;20018;-79
2024/04/23 08:50:12;;;;;;;25.60;17.08;;;4.40;99.90;;;;;;7553967;19;20015;-76
2024/04/23 08:52:43;;;;;;;25.85;16.67;;;4.50;99.90;;;;;;7561223;19;20103;-78
2024/04/23 08:55:14;;;;;;;27.38;17.13;;;4.50;99.90;;;;;;7562570;19;20055;-78
2024/04/23 08:57:46;;;;;;;27.00;18.02;;;4.40;99.90;;;;;;7563613;19;21237;-78
2024/04/23 09:00:18;;;;;;;22.83;15.60;;;4.40;99.90;;;;;;7549871;19;20607;-80
2024/04/23 09:02:51;;;;;;;27.27;16.13;;;4.30;99.90;;;;;;7544415;19;21210;-77
2024/04/23 09:05:22;;;;;;;25.27;16.73;;;4.30;99.90;;;;;;7567182;19;20026;-76
2024/04/23 09:07:55;;;;;;;26.55;16.10;;;4.20;99.90;;;;;;7578712;19;20564;-76
2024/04/23 09:10:27;;;;;;;26.27;16.47;;;4.20;99.90;;;;;;7554985;19;20046;-80
2024/04/23 09:12:59;;;;;;;25.05;16.98;;;4.20;99.90;;;;;;7582992;19;20603;-81
2024/04/23 09:15:30;;;;;;;24.40;15.70;;;4.20;99.90;;;;;;7567725;19;20022;-79
2024/04/23 09:18:02;;;;;;;22.85;14.75;;;4.20;99.90;;;;;;7574559;19;20022;-76
2024/04/23 09:20:33;;;;;;;23.13;15.45;;;4.30;99.90;;;;;;7580053;19;21003;-80
2024/04/23 09:23:04;;;;;;;21.00;14.20;;;4.30;99.90;;;;;;7582837;19;20019;-74
2024/04/23 09:25:37;;;;;;;22.30;14.45;;;4.20;99.90;;;;;;7580203;19;20054;-81
2024/04/23 09:28:20;;;;;;;21.15;14.68;;;4.30;99.90;;;;;;7574126;19;20981;-79
2024/04/23 09:30:53;;;;;;;19.57;12.90;;;4.30;99.90;;;;;;7552376;19;20106;-77
2024/04/23 09:33:26;;;;;;;21.13;13.95;;;4.20;99.90;;;;;;7568734;19;20283;-78
2024/04/23 09:36:09;;;;;;;25.35;13.20;;;4.20;99.90;;;;;;7553121;19;20029;-80
2024/04/23 09:38:40;;;;;;;18.42;12.50;;;4.20;99.90;;;;;;7548256;19;21168;-80
2024/04/23 09:41:14;;;;;;;24.48;13.73;;;4.20;99.90;;;;;;7542023;19;20051;-76
2024/04/23 09:43:59;;;;;;;21.52;14.45;;;4.10;99.90;;;;;;7545265;19;20010;-80
2024/04/23 09:46:32;;;;;;;20.00;14.05;;;4.00;99.90;;;;;;7559749;19;20014;-78
2024/04/23 09:49:04;;;;;;;20.52;13.82;;;4.10;99.90;;;;;;7560771;19;20024;-79
2024/04/23 09:51:36;;;;;;;18.92;13.05;;;4.10;99.90;;;;;;7535361;19;20072;-78
2024/04/23 09:54:07;;;;;;;17.98;12.50;;;4.20;99.90;;;;;;7562627;19;20019;-76
2024/04/23 09:56:38;;;;;;;22.38;13.85;;;4.20;99.90;;;;;;7552775;19;20052;-79
2024/04/23 09:59:10;;;;;;;19.92;13.05;;;4.30;99.90;;;;;;7548966;19;20025;-79
2024/04/23 10:01:44;;;;;;;18.17;12.70;;;4.30;99.90;;;;;;7548076;19;20022;-77
2024/04/23 10:04:16;;;;;;;19.10;12.73;;;4.20;99.90;;;;;;7568380;19;20121;-78
2024/04/23 10:06:53;;;;;;;20.50;12.23;;;4.10;99.90;;;;;;7543407;19;20043;-78
2024/04/23 10:09:30;;;;;;;18.38;12.93;;;4.00;99.90;;;;;;7525121;19;20018;-78
2024/04/23 10:12:16;;;;;;;20.10;13.27;;;4.00;99.90;;;;;;7542600;19;20086;-80
2024/04/23 10:14:50;;;;;;;19.92;11.93;;;4.00;99.90;;;;;;7554167;19;20022;-78
2024/04/23 10:17:24;;;;;;;16.92;11.85;;;4.00;99.90;;;;;;7551942;19;20035;-78
2024/04/23 10:19:57;;;;;;;19.30;13.10;;;4.00;99.90;;;;;;7551518;19;20015;-79
2024/04/23 10:22:30;;;;;;;18.55;11.93;;;4.00;99.90;;;;;;7551024;19;20022;-80
2024/04/23 10:25:03;;;;;;;19.95;13.25;;;4.00;99.90;;;;;;7561043;19;21827;-79
2024/04/23 10:27:37;;;;;;;22.42;13.23;;;4.00;99.90;;;;;;7572568;19;20405;-81
2024/04/23 10:30:12;;;;;;;20.98;13.52;;;4.00;99.90;;;;;;7554606;19;20029;-76
2024/04/23 10:32:44;;;;;;;22.02;13.35;;;4.00;99.90;;;;;;7565370;19;20606;-77
2024/04/23 10:35:16;;;;;;;20.55;13.73;;;4.00;99.90;;;;;;7561710;19;20014;-76
2024/04/23 10:37:50;;;;;;;19.60;12.93;;;4.00;99.90;;;;;;7571010;19;20015;-79
2024/04/23 10:40:21;;;;;;;20.75;13.75;;;4.00;99.90;;;;;;7561711;19;20022;-77
2024/04/23 10:42:52;;;;;;;20.17;14.07;;;4.10;99.90;;;;;;7572068;19;21793;-77
2024/04/23 10:45:24;;;;;;;17.33;11.95;;;4.10;99.90;;;;;;7581356;19;20015;-78
2024/04/23 10:47:55;;;;;;;17.48;12.32;;;4.10;99.90;;;;;;7586411;19;20011;-78
2024/04/23 10:50:28;;;;;;;16.52;11.55;;;4.10;99.90;;;;;;7587893;19;20105;-79
2024/04/23 10:53:02;;;;;;;17.58;12.02;;;4.10;99.90;;;;;;7604618;19;21064;-78
2024/04/23 10:55:34;;;;;;;20.15;13.25;;;4.20;99.90;;;;;;7605997;19;20022;-81
2024/04/23 10:58:07;;;;;;;20.00;13.25;;;4.10;99.90;;;;;;7576291;19;20020;-80
2024/04/23 11:00:38;;;;;;;19.90;13.85;;;4.10;99.90;;;;;;7589973;19;20018;-78
2024/04/23 11:03:28;;;;;;;20.58;14.57;;;4.10;99.90;;;;;;7579064;19;20321;-78
2024/04/23 11:05:59;;;;;;;23.65;15.10;;;4.10;99.90;;;;;;7596506;19;20014;-78
2024/04/23 11:08:35;;;;;;;18.65;12.90;;;4.10;99.90;;;;;;7587608;19;20524;-77
2024/04/23 11:11:08;;;;;;;18.15;12.82;;;4.10;99.90;;;;;;7589652;19;20529;-80
2024/04/23 11:13:41;;;;;;;19.27;13.25;;;4.10;99.90;;;;;;7581574;19;20011;-81
2024/04/23 11:16:16;;;;;;;17.83;13.32;;;4.10;99.90;;;;;;7578794;19;20123;-79
2024/04/23 11:18:52;;;;;;;19.98;12.35;;;4.10;99.90;;;;;;7578694;19;20312;-79
2024/04/23 11:21:25;;;;;;;18.35;12.88;;;4.00;99.90;;;;;;7585987;19;20041;-75
2024/04/23 11:24:02;;;;;;;19.25;13.63;;;4.10;99.90;;;;;;7587030;19;20039;-78
2024/04/23 11:26:35;;;;;;;21.15;14.63;;;4.10;99.90;;;;;;7579776;19;20028;-80
2024/04/23 11:29:10;;;;;;;22.55;14.35;;;4.10;99.90;;;;;;7594422;19;20088;-79
2024/04/23 11:31:42;;;;;;;22.90;15.07;;;4.10;99.90;;;;;;7584550;19;20374;-79
2024/04/23 11:34:14;;;;;;;22.50;14.77;;;4.00;99.90;;;;;;7588387;19;20107;-79
2024/04/23 11:36:50;;;;;;;24.85;15.15;;;4.00;99.90;;;;;;7589881;19;20018;-78
2024/04/23 11:39:25;;;;;;;24.40;15.80;;;4.10;99.90;;;;;;7589104;19;20021;-82
2024/04/23 11:41:57;;;;;;;26.58;15.60;;;4.10;99.90;;;;;;7579689;19;20011;-76
2024/04/23 11:44:29;;;;;;;21.52;14.55;;;4.10;99.90;;;;;;7585159;19;20014;-82
2024/04/23 11:47:01;;;;;;;24.83;15.23;;;4.00;99.90;;;;;;7588079;19;20015;-77
2024/04/23 11:49:32;;;;;;;23.52;15.55;;;4.00;99.90;;;;;;7588285;19;20171;-79
2024/04/23 11:52:04;;;;;;;24.38;15.50;;;4.10;99.90;;;;;;7591709;19;20047;-80
2024/04/23 11:54:37;;;;;;;24.55;15.40;;;4.00;99.90;;;;;;7590818;19;20031;-75
2024/04/23 11:57:09;;;;;;;24.30;15.75;;;4.00;99.90;;;;;;7587023;19;20014;-77
2024/04/23 11:59:41;;;;;;;25.92;16.38;;;4.00;99.90;;;;;;7584517;19;20105;-80
2024/04/23 12:02:13;;;;;;;26.33;16.38;;;4.00;99.90;;;;;;7568466;19;20022;-79
2024/04/23 12:04:46;;;;;;;28.67;17.05;;;4.00;99.90;;;;;;7590259;19;20768;-79
2024/04/23 12:07:18;;;;;;;31.65;17.13;;;4.00;99.90;;;;;;7585851;19;20025;-77
2024/04/23 12:09:50;;;;;;;27.17;16.13;;;4.00;99.90;;;;;;7591979;19;20022;-80
2024/04/23 12:12:24;;;;;;;27.17;17.52;;;4.00;99.90;;;;;;7579045;19;20618;-80
2024/04/23 12:14:55;;;;;;;30.80;17.42;;;4.00;99.90;;;;;;7581185;19;20749;-79
2024/04/23 12:17:27;;;;;;;30.85;17.58;;;4.00;99.90;;;;;;7582223;19;20015;-79
2024/04/23 12:19:58;;;;;;;31.73;18.48;;;4.00;99.90;;;;;;7582085;19;20014;-77
2024/04/23 12:22:31;;;;;;;24.10;15.90;;;4.00;99.90;;;;;;7573228;19;20014;-77
2024/04/23 12:25:03;;;;;;;30.55;18.88;;;4.00;99.90;;;;;;7579104;19;20010;-77
2024/04/23 12:27:36;;;;;;;30.20;18.90;;;4.10;99.90;;;;;;7587858;19;20570;-79
2024/04/23 12:30:09;;;;;;;27.65;17.23;;;4.10;99.90;;;;;;7578812;19;20501;-80
2024/04/23 12:32:45;;;;;;;25.05;16.98;;;4.10;99.90;;;;;;7564213;19;20026;-76
2024/04/23 12:35:19;;;;;;;32.58;19.63;;;4.10;99.90;;;;;;7552667;19;20787;-78
2024/04/23 12:38:00;;;;;;;27.00;17.55;;;4.20;99.90;;;;;;7574741;19;20018;-76
2024/04/23 12:40:32;;;;;;;27.90;17.67;;;4.20;99.90;;;;;;7554355;19;20102;-78
2024/04/23 12:43:10;;;;;;;29.50;17.52;;;4.20;99.90;;;;;;7562343;19;20330;-77
2024/04/23 12:45:41;;;;;;;31.83;19.10;;;4.30;99.90;;;;;;7551246;19;20090;-81
2024/04/23 12:48:13;;;;;;;31.45;19.65;;;4.20;99.90;;;;;;7564191;19;20014;-76
2024/04/23 12:50:44;;;;;;;30.40;18.33;;;4.20;99.90;;;;;;7559035;19;20117;-78
2024/04/23 12:53:18;;;;;;;30.08;18.90;;;4.10;99.90;;;;;;7568808;19;20362;-77
2024/04/23 12:55:49;;;;;;;32.20;19.05;;;4.20;99.90;;;;;;7580068;19;20032;-76
2024/04/23 12:58:22;;;;;;;32.15;17.83;;;4.20;99.90;;;;;;7553808;19;20019;-77
2024/04/23 13:00:54;;;;;;;33.00;19.63;;;4.10;99.90;;;;;;7554449;19;20006;-76
2024/04/23 13:03:25;;;;;;;29.48;18.30;;;4.10;99.90;;;;;;7555645;19;20014;-76
2024/04/23 13:05:57;;;;;;;35.42;19.73;;;4.10;99.90;;;;;;7563527;19;20015;-76
2024/04/23 13:08:31;;;;;;;31.65;19.17;;;4.10;99.90;;;;;;7558340;19;20050;-77